createdAt,value
2023-03-16T00:00:26.983Z,2.80
2023-03-16T00:01:11.500Z,2.50
2023-03-16T00:01:53.411Z,2.40
2023-03-16T00:02:35.371Z,2.40
2023-03-16T00:03:20.456Z,2.70
2023-03-16T00:04:02.382Z,4.70
2023-03-16T00:04:47.291Z,3.10
2023-03-16T00:05:31.513Z,2.40
2023-03-16T00:06:13.304Z,2.30
2023-03-16T00:06:57.315Z,2.40
2023-03-16T00:07:39.295Z,2.50
2023-03-16T00:08:21.364Z,3.10
2023-03-16T00:09:03.990Z,2.80
2023-03-16T00:09:46.700Z,2.40
2023-03-16T00:10:29.254Z,2.30
2023-03-16T00:11:12.273Z,2.40
2023-03-16T00:11:54.099Z,2.40
2023-03-16T00:12:35.944Z,2.80
2023-03-16T00:13:19.347Z,2.30
2023-03-16T00:14:06.220Z,2.30
2023-03-16T00:14:49.541Z,2.30
2023-03-16T00:15:31.445Z,2.40
2023-03-16T00:16:16.929Z,3.30
2023-03-16T00:16:58.926Z,2.90
2023-03-16T00:17:41.006Z,2.40
2023-03-16T00:18:28.353Z,2.30
2023-03-16T00:19:55.642Z,2.30
2023-03-16T00:20:37.445Z,2.40
2023-03-16T00:21:21.596Z,2.90
2023-03-16T00:22:03.403Z,2.70
2023-03-16T00:22:45.570Z,2.40
2023-03-16T00:23:27.718Z,3.00
2023-03-16T00:24:09.916Z,3.20
2023-03-16T00:24:55.450Z,2.40
2023-03-16T00:25:37.385Z,2.30
2023-03-16T00:26:19.267Z,2.20
2023-03-16T00:27:01.130Z,2.20
2023-03-16T00:27:42.910Z,2.30
2023-03-16T00:28:27.019Z,2.30
2023-03-16T00:29:08.991Z,2.30
2023-03-16T00:30:37.884Z,2.40
2023-03-16T00:31:20.016Z,2.40
2023-03-16T00:32:03.463Z,2.50
2023-03-16T00:32:45.619Z,2.40
2023-03-16T00:33:27.807Z,2.60
2023-03-16T00:34:11.201Z,2.40
2023-03-16T00:34:53.545Z,2.40
2023-03-16T00:35:35.548Z,2.70
2023-03-16T00:36:17.672Z,2.40
2023-03-16T00:36:59.482Z,2.40
2023-03-16T00:37:43.006Z,2.90
2023-03-16T00:38:24.817Z,3.10
2023-03-16T00:39:07.499Z,2.20
2023-03-16T00:39:50.070Z,2.60
2023-03-16T00:41:16.364Z,2.40
2023-03-16T00:41:58.441Z,1.90
2023-03-16T00:42:42.693Z,2.50
2023-03-16T00:43:27.260Z,2.50
2023-03-16T00:44:09.736Z,2.80
2023-03-16T00:44:57.045Z,2.50
2023-03-16T00:45:39.158Z,2.50
2023-03-16T00:46:26.459Z,2.50
2023-03-16T00:47:08.813Z,2.50
2023-03-16T00:47:54.161Z,2.50
2023-03-16T00:48:38.146Z,3.20
2023-03-16T00:49:20.031Z,2.60
2023-03-16T00:50:02.473Z,2.60
2023-03-16T00:50:44.270Z,2.80
2023-03-16T00:51:26.293Z,2.50
2023-03-16T00:52:08.989Z,2.50
2023-03-16T00:52:53.652Z,2.60
2023-03-16T00:53:36.642Z,2.60
2023-03-16T00:54:18.575Z,2.60
2023-03-16T00:55:44.575Z,2.50
2023-03-16T00:56:28.757Z,3.30
2023-03-16T00:57:12.764Z,2.60
2023-03-16T00:57:54.852Z,2.60
2023-03-16T00:58:39.051Z,2.60
2023-03-16T00:59:21.713Z,2.60
2023-03-16T01:00:12.830Z,3.30
2023-03-16T01:00:57.032Z,2.70
2023-03-16T01:02:24.839Z,2.70
2023-03-16T01:03:06.786Z,2.60
2023-03-16T01:03:50.948Z,2.70
2023-03-16T01:04:34.252Z,2.80
2023-03-16T01:05:18.638Z,2.10
2023-03-16T01:06:27.231Z,2.60
2023-03-16T01:07:12.324Z,3.00
2023-03-16T01:07:54.072Z,2.60
2023-03-16T01:08:36.881Z,2.60
2023-03-16T01:09:21.193Z,3.30
2023-03-16T01:10:03.856Z,4.20
2023-03-16T01:10:45.624Z,2.60
2023-03-16T01:11:27.685Z,2.80
2023-03-16T01:12:16.937Z,3.00
2023-03-16T01:12:58.792Z,2.30
2023-03-16T01:13:40.650Z,2.70
2023-03-16T01:14:22.911Z,2.70
2023-03-16T01:15:05.170Z,2.70
2023-03-16T01:15:47.303Z,2.70
2023-03-16T01:16:29.975Z,2.70
2023-03-16T01:17:13.932Z,3.10
2023-03-16T01:17:55.779Z,3.10
2023-03-16T01:18:37.585Z,2.60
2023-03-16T01:19:19.406Z,3.00
2023-03-16T01:20:02.173Z,2.70
2023-03-16T01:20:53.192Z,2.70
2023-03-16T01:21:36.947Z,2.80
2023-03-16T01:22:19.075Z,2.70
2023-03-16T01:23:00.889Z,2.90
2023-03-16T01:23:44.157Z,2.70
2023-03-16T01:24:25.988Z,2.80
2023-03-16T01:25:08.068Z,2.80
2023-03-16T01:25:54.012Z,2.70
2023-03-16T01:26:36.188Z,2.60
2023-03-16T01:27:17.955Z,3.70
2023-03-16T01:27:59.995Z,2.60
2023-03-16T01:28:41.928Z,2.60
2023-03-16T01:29:23.993Z,2.70
2023-03-16T01:30:06.825Z,3.30
2023-03-16T01:30:51.023Z,2.50
2023-03-16T01:31:32.993Z,2.80
2023-03-16T01:32:15.047Z,2.40
2023-03-16T01:32:56.901Z,2.50
2023-03-16T01:33:38.956Z,2.70
2023-03-16T01:34:20.874Z,2.20
2023-03-16T01:35:02.825Z,2.80
2023-03-16T01:36:01.463Z,2.60
2023-03-16T01:36:46.234Z,2.50
2023-03-16T01:37:28.094Z,2.70
2023-03-16T01:38:10.031Z,2.70
2023-03-16T01:38:51.913Z,2.30
2023-03-16T01:39:33.659Z,2.50
2023-03-16T01:40:16.107Z,2.70
2023-03-16T01:40:58.343Z,2.80
2023-03-16T01:41:41.906Z,2.70
2023-03-16T01:42:24.154Z,2.70
2023-03-16T01:43:07.697Z,2.70
2023-03-16T01:43:54.180Z,2.40
2023-03-16T01:44:57.475Z,2.70
2023-03-16T01:46:00.293Z,2.60
2023-03-16T01:46:44.191Z,2.70
2023-03-16T01:47:25.961Z,2.70
2023-03-16T01:48:08.140Z,2.70
2023-03-16T01:48:58.429Z,2.70
2023-03-16T01:49:40.319Z,2.70
2023-03-16T01:50:22.774Z,2.60
2023-03-16T01:51:13.688Z,2.70
2023-03-16T01:52:07.250Z,2.70
2023-03-16T01:52:49.155Z,2.60
2023-03-16T01:53:33.533Z,3.00
2023-03-16T01:54:36.248Z,3.60
2023-03-16T01:55:18.519Z,6.00
2023-03-16T01:56:03.264Z,2.80
2023-03-16T01:57:06.010Z,2.80
2023-03-16T01:57:48.215Z,2.70
2023-03-16T01:58:31.546Z,3.10
2023-03-16T01:59:18.009Z,2.70
2023-03-16T02:00:19.808Z,3.10
2023-03-16T02:01:02.433Z,2.70
2023-03-16T02:01:46.053Z,3.10
2023-03-16T02:02:32.108Z,3.40
2023-03-16T02:03:18.499Z,3.10
2023-03-16T02:04:54.291Z,2.70
2023-03-16T02:05:43.109Z,2.70
2023-03-16T02:06:25.185Z,2.70
2023-03-16T02:07:08.243Z,2.70
2023-03-16T02:07:58.538Z,2.70
2023-03-16T02:08:42.814Z,2.60
2023-03-16T02:09:26.435Z,2.60
2023-03-16T02:10:10.744Z,3.10
2023-03-16T02:10:54.693Z,2.70
2023-03-16T02:11:39.511Z,2.80
2023-03-16T02:12:22.204Z,2.70
2023-03-16T02:13:04.242Z,3.40
2023-03-16T02:13:46.665Z,2.70
2023-03-16T02:14:28.647Z,2.50
2023-03-16T02:15:12.223Z,2.60
2023-03-16T02:15:56.141Z,2.70
2023-03-16T02:16:39.449Z,2.90
2023-03-16T02:17:27.530Z,2.70
2023-03-16T02:18:09.544Z,2.70
2023-03-16T02:18:51.780Z,2.60
2023-03-16T02:19:59.991Z,2.70
2023-03-16T02:21:11.288Z,2.70
2023-03-16T02:22:02.528Z,2.80
2023-03-16T02:22:47.713Z,2.70
2023-03-16T02:23:32.627Z,2.80
2023-03-16T02:24:14.441Z,2.90
2023-03-16T02:24:56.384Z,2.80
2023-03-16T02:25:47.690Z,2.60
2023-03-16T02:27:06.464Z,2.80
2023-03-16T02:28:21.394Z,2.70
2023-03-16T02:29:45.790Z,2.80
2023-03-16T02:30:28.124Z,3.00
2023-03-16T02:31:10.528Z,-0.70
2023-03-16T02:31:54.477Z,2.60
2023-03-16T02:32:38.348Z,2.60
2023-03-16T02:33:21.412Z,2.80
2023-03-16T02:34:06.350Z,2.70
2023-03-16T02:34:48.141Z,2.90
2023-03-16T02:35:30.060Z,2.40
2023-03-16T02:36:17.365Z,3.20
2023-03-16T02:37:00.851Z,2.60
2023-03-16T02:37:42.750Z,2.70
2023-03-16T02:38:24.529Z,2.70
2023-03-16T02:39:06.367Z,2.80
2023-03-16T02:39:48.242Z,2.60
2023-03-16T02:40:32.930Z,2.80
2023-03-16T02:41:19.531Z,2.60
2023-03-16T02:42:02.549Z,2.70
2023-03-16T02:42:44.502Z,2.60
2023-03-16T02:43:33.303Z,2.70
2023-03-16T02:44:26.778Z,2.70
2023-03-16T02:45:09.645Z,3.00
2023-03-16T02:45:58.620Z,2.70
2023-03-16T02:46:43.501Z,3.00
2023-03-16T02:47:29.663Z,3.40
2023-03-16T02:48:18.170Z,2.70
2023-03-16T02:49:03.045Z,2.50
2023-03-16T02:49:46.064Z,2.50
2023-03-16T02:50:28.059Z,2.70
2023-03-16T02:51:11.389Z,2.70
2023-03-16T02:51:53.996Z,2.70
2023-03-16T02:52:37.507Z,3.30
2023-03-16T02:53:20.108Z,3.50
2023-03-16T02:54:01.966Z,2.80
2023-03-16T02:54:43.952Z,2.80
2023-03-16T02:55:26.081Z,2.80
2023-03-16T02:56:08.399Z,3.30
2023-03-16T02:56:50.904Z,2.90
2023-03-16T02:57:33.021Z,3.20
2023-03-16T02:58:15.591Z,3.00
2023-03-16T02:58:57.930Z,2.80
2023-03-16T02:59:39.726Z,2.70
2023-03-16T03:00:22.068Z,2.80
2023-03-16T03:01:06.642Z,2.90
2023-03-16T03:01:48.513Z,2.80
2023-03-16T03:02:32.034Z,3.00
2023-03-16T03:03:16.979Z,2.90
2023-03-16T03:03:59.070Z,2.80
2023-03-16T03:04:41.839Z,2.80
2023-03-16T03:05:23.702Z,3.20
2023-03-16T03:06:05.693Z,3.00
2023-03-16T03:06:47.462Z,2.90
2023-03-16T03:07:31.871Z,2.90
2023-03-16T03:08:14.124Z,3.00
2023-03-16T03:08:56.683Z,2.90
2023-03-16T03:09:38.536Z,3.10
2023-03-16T03:10:20.382Z,2.90
2023-03-16T03:11:04.501Z,2.80
2023-03-16T03:11:46.839Z,3.00
2023-03-16T03:12:28.655Z,2.70
2023-03-16T03:13:10.738Z,2.90
2023-03-16T03:13:52.643Z,3.00
2023-03-16T03:14:38.044Z,3.20
2023-03-16T03:15:19.975Z,2.80
2023-03-16T03:16:02.023Z,2.90
2023-03-16T03:16:46.846Z,3.00
2023-03-16T03:17:31.638Z,2.80
2023-03-16T03:18:16.795Z,3.00
2023-03-16T03:19:01.405Z,2.90
2023-03-16T03:19:43.254Z,3.00
2023-03-16T03:20:25.107Z,2.70
2023-03-16T03:21:07.516Z,3.00
2023-03-16T03:21:52.064Z,3.40
2023-03-16T03:22:33.903Z,2.90
2023-03-16T03:23:16.516Z,2.80
2023-03-16T03:23:58.308Z,2.80
2023-03-16T03:24:40.091Z,3.10
2023-03-16T03:25:22.976Z,2.60
2023-03-16T03:26:05.156Z,3.10
2023-03-16T03:26:47.122Z,3.10
2023-03-16T03:27:29.018Z,3.30
2023-03-16T03:28:11.555Z,2.80
2023-03-16T03:28:53.523Z,3.00
2023-03-16T03:29:35.664Z,2.80
2023-03-16T03:30:20.221Z,2.90
2023-03-16T03:31:02.178Z,2.80
2023-03-16T03:31:44.228Z,2.90
2023-03-16T03:32:26.281Z,2.80
2023-03-16T03:33:08.206Z,2.80
2023-03-16T03:33:50.051Z,3.00
2023-03-16T03:34:32.137Z,3.00
2023-03-16T03:35:16.213Z,2.80
2023-03-16T03:35:59.377Z,3.00
2023-03-16T03:36:41.539Z,2.80
2023-03-16T03:37:23.478Z,3.10
2023-03-16T03:38:05.324Z,2.90
2023-03-16T03:38:51.668Z,2.70
2023-03-16T03:39:33.472Z,2.80
2023-03-16T03:40:17.765Z,3.00
2023-03-16T03:41:01.745Z,3.00
2023-03-16T03:41:43.675Z,3.30
2023-03-16T03:42:25.777Z,2.90
2023-03-16T03:43:07.892Z,2.90
2023-03-16T03:43:49.746Z,3.00
2023-03-16T03:44:36.834Z,3.30
2023-03-16T03:45:18.712Z,2.90
2023-03-16T03:46:02.234Z,3.00
2023-03-16T03:46:44.247Z,3.20
2023-03-16T03:47:26.220Z,2.70
2023-03-16T03:48:07.966Z,2.90
2023-03-16T03:48:49.828Z,2.80
2023-03-16T03:49:33.865Z,2.90
2023-03-16T03:50:15.841Z,2.80
2023-03-16T03:50:57.967Z,2.80
2023-03-16T03:51:41.214Z,2.70
2023-03-16T03:52:23.397Z,3.00
2023-03-16T03:53:05.799Z,2.70
2023-03-16T03:53:48.262Z,2.80
2023-03-16T03:54:30.010Z,2.70
2023-03-16T03:55:14.404Z,2.70
2023-03-16T03:55:56.433Z,2.70
2023-03-16T03:56:41.172Z,2.90
2023-03-16T03:57:23.256Z,2.80
2023-03-16T03:58:05.325Z,2.80
2023-03-16T03:58:47.078Z,2.60
2023-03-16T03:59:29.006Z,3.00
2023-03-16T04:00:15.932Z,2.90
2023-03-16T04:00:58.042Z,2.90
2023-03-16T04:01:40.086Z,3.00
2023-03-16T04:02:22.011Z,2.70
2023-03-16T04:03:05.138Z,2.60
2023-03-16T04:03:47.127Z,2.80
2023-03-16T04:04:28.866Z,2.80
2023-03-16T04:05:10.866Z,2.80
2023-03-16T04:05:53.078Z,2.60
2023-03-16T04:06:35.023Z,3.10
2023-03-16T04:07:17.262Z,2.40
2023-03-16T04:07:59.249Z,2.90
2023-03-16T04:08:41.151Z,3.10
2023-03-16T04:09:26.074Z,2.80
2023-03-16T04:10:08.704Z,3.00
2023-03-16T04:10:51.427Z,2.60
2023-03-16T04:11:35.938Z,2.90
2023-03-16T04:12:18.109Z,2.80
2023-03-16T04:13:00.925Z,2.80
2023-03-16T04:13:43.167Z,2.90
2023-03-16T04:14:25.107Z,2.90
2023-03-16T04:15:07.309Z,3.00
2023-03-16T04:15:49.251Z,2.90
2023-03-16T04:16:34.506Z,3.00
2023-03-16T04:17:16.529Z,2.90
2023-03-16T04:17:59.259Z,4.30
2023-03-16T04:18:41.028Z,3.30
2023-03-16T04:19:24.316Z,2.90
2023-03-16T04:20:12.906Z,2.50
2023-03-16T04:20:55.102Z,2.90
2023-03-16T04:21:37.084Z,2.80
2023-03-16T04:22:18.911Z,2.80
2023-03-16T04:23:00.714Z,3.00
2023-03-16T04:23:42.708Z,3.10
2023-03-16T04:24:24.481Z,2.90
2023-03-16T04:25:06.524Z,3.10
2023-03-16T04:25:48.341Z,2.80
2023-03-16T04:26:30.097Z,3.40
2023-03-16T04:27:12.130Z,2.90
2023-03-16T04:27:54.054Z,3.30
2023-03-16T04:28:36.055Z,3.00
2023-03-16T04:29:19.447Z,2.80
2023-03-16T04:30:01.423Z,2.90
2023-03-16T04:30:43.331Z,3.10
2023-03-16T04:31:25.208Z,2.70
2023-03-16T04:32:08.290Z,3.10
2023-03-16T04:32:50.516Z,2.80
2023-03-16T04:33:33.342Z,3.00
2023-03-16T04:34:15.205Z,2.80
2023-03-16T04:34:57.194Z,2.90
2023-03-16T04:35:41.155Z,2.90
2023-03-16T04:36:25.888Z,2.90
2023-03-16T04:37:08.151Z,3.00
2023-03-16T04:37:50.224Z,2.80
2023-03-16T04:38:36.051Z,2.70
2023-03-16T04:39:21.227Z,3.00
2023-03-16T04:40:11.721Z,3.50
2023-03-16T04:40:56.183Z,2.80
2023-03-16T04:41:38.312Z,2.90
2023-03-16T04:42:20.078Z,3.00
2023-03-16T04:43:02.714Z,3.50
2023-03-16T04:43:44.794Z,2.90
2023-03-16T04:44:26.694Z,2.90
2023-03-16T04:45:09.288Z,3.10
2023-03-16T04:45:51.115Z,2.90
2023-03-16T04:46:32.976Z,3.50
2023-03-16T04:47:16.762Z,3.60
2023-03-16T04:48:01.280Z,3.00
2023-03-16T04:48:43.357Z,3.00
2023-03-16T04:49:25.632Z,3.10
2023-03-16T04:50:08.340Z,2.80
2023-03-16T04:50:51.421Z,3.10
2023-03-16T04:51:33.412Z,2.90
2023-03-16T04:52:15.336Z,2.90
2023-03-16T04:52:59.476Z,2.80
2023-03-16T04:53:41.729Z,3.00
2023-03-16T04:54:23.809Z,3.20
2023-03-16T04:55:06.237Z,2.90
2023-03-16T04:55:48.409Z,3.00
2023-03-16T04:56:30.474Z,2.90
2023-03-16T04:57:12.237Z,2.80
2023-03-16T04:57:56.372Z,4.20
2023-03-16T04:58:38.452Z,5.90
2023-03-16T04:59:20.257Z,3.10
2023-03-16T05:00:02.430Z,3.10
2023-03-16T05:00:44.266Z,3.00
2023-03-16T05:01:26.603Z,3.20
2023-03-16T05:02:08.425Z,3.10
2023-03-16T05:02:54.329Z,3.00
2023-03-16T05:03:36.143Z,3.10
2023-03-16T05:04:19.796Z,3.20
2023-03-16T05:05:01.829Z,3.30
2023-03-16T05:05:45.444Z,2.70
2023-03-16T05:06:29.592Z,3.10
2023-03-16T05:07:11.897Z,3.00
2023-03-16T05:07:54.064Z,3.10
2023-03-16T05:08:36.822Z,3.10
2023-03-16T05:09:20.753Z,3.10
2023-03-16T05:10:47.663Z,3.10
2023-03-16T05:11:29.392Z,3.30
2023-03-16T05:12:11.411Z,3.10
2023-03-16T05:12:53.529Z,3.30
2023-03-16T05:14:17.589Z,3.00
2023-03-16T05:14:59.461Z,3.50
2023-03-16T05:15:41.548Z,3.80
2023-03-16T05:16:23.633Z,3.20
2023-03-16T05:17:05.477Z,3.00
2023-03-16T05:17:49.636Z,3.20
2023-03-16T05:18:33.232Z,3.00
2023-03-16T05:19:59.632Z,2.90
2023-03-16T05:20:42.228Z,3.80
2023-03-16T05:21:26.523Z,3.20
2023-03-16T05:22:08.734Z,4.40
2023-03-16T05:22:51.570Z,2.90
2023-03-16T05:23:33.329Z,2.90
2023-03-16T05:24:15.470Z,3.90
2023-03-16T05:24:59.428Z,3.20
2023-03-16T05:25:41.476Z,3.20
2023-03-16T05:26:26.209Z,3.90
2023-03-16T05:27:08.103Z,3.20
2023-03-16T05:27:52.051Z,3.00
2023-03-16T05:28:36.269Z,3.20
2023-03-16T05:29:18.686Z,3.30
2023-03-16T05:30:01.434Z,3.30
2023-03-16T05:30:45.260Z,3.10
2023-03-16T05:31:29.625Z,3.40
2023-03-16T05:32:12.080Z,3.40
2023-03-16T05:32:56.746Z,3.40
2023-03-16T05:33:39.028Z,3.00
2023-03-16T05:34:21.183Z,3.10
2023-03-16T05:35:03.718Z,3.20
2023-03-16T05:35:45.654Z,3.20
2023-03-16T05:36:27.677Z,3.30
2023-03-16T05:37:10.002Z,3.40
2023-03-16T05:37:52.053Z,3.70
2023-03-16T05:38:36.692Z,3.30
2023-03-16T05:39:18.675Z,3.30
2023-03-16T05:40:01.595Z,3.70
2023-03-16T05:40:43.948Z,3.40
2023-03-16T05:41:26.044Z,3.40
2023-03-16T05:42:07.940Z,3.50
2023-03-16T05:42:55.482Z,3.20
2023-03-16T05:43:40.091Z,3.50
2023-03-16T05:44:21.955Z,3.50
2023-03-16T05:45:06.589Z,3.30
2023-03-16T05:45:48.647Z,3.30
2023-03-16T05:46:31.050Z,3.30
2023-03-16T05:47:13.634Z,3.00
2023-03-16T05:47:55.685Z,3.50
2023-03-16T05:48:37.635Z,3.40
2023-03-16T05:49:21.789Z,3.90
2023-03-16T05:50:05.641Z,3.40
2023-03-16T05:50:47.836Z,3.40
2023-03-16T05:51:29.904Z,3.40
2023-03-16T05:52:12.208Z,4.20
2023-03-16T05:52:54.280Z,3.10
2023-03-16T05:53:36.302Z,3.60
2023-03-16T05:54:18.155Z,3.60
2023-03-16T05:54:59.960Z,3.50
2023-03-16T05:55:41.811Z,3.50
2023-03-16T05:56:28.138Z,3.60
2023-03-16T05:57:10.029Z,3.60
2023-03-16T05:57:51.795Z,3.40
2023-03-16T05:58:34.070Z,3.80
2023-03-16T05:59:18.009Z,3.50
2023-03-16T06:00:02.672Z,3.50
2023-03-16T06:00:46.816Z,3.50
2023-03-16T06:01:28.856Z,3.50
2023-03-16T06:02:11.232Z,3.70
2023-03-16T06:02:53.945Z,3.50
2023-03-16T06:03:38.738Z,3.30
2023-03-16T06:04:21.859Z,3.40
2023-03-16T06:05:04.154Z,3.20
2023-03-16T06:05:47.074Z,3.40
2023-03-16T06:06:29.158Z,3.80
2023-03-16T06:07:13.996Z,3.10
2023-03-16T06:07:56.074Z,3.70
2023-03-16T06:08:38.371Z,3.50
2023-03-16T06:09:20.152Z,3.70
2023-03-16T06:10:02.849Z,3.50
2023-03-16T06:10:48.069Z,3.60
2023-03-16T06:11:29.956Z,3.30
2023-03-16T06:12:11.990Z,3.40
2023-03-16T06:12:53.840Z,3.20
2023-03-16T06:13:36.111Z,3.70
2023-03-16T06:14:17.926Z,3.70
2023-03-16T06:14:59.990Z,3.70
2023-03-16T06:15:42.135Z,3.60
2023-03-16T06:16:27.519Z,3.70
2023-03-16T06:17:09.374Z,3.70
2023-03-16T06:17:54.224Z,3.50
2023-03-16T06:18:38.841Z,3.70
2023-03-16T06:19:24.209Z,3.50
2023-03-16T06:20:11.297Z,3.80
2023-03-16T06:20:53.508Z,3.70
2023-03-16T06:21:35.410Z,3.50
2023-03-16T06:22:18.299Z,3.60
2023-03-16T06:23:00.116Z,3.60
2023-03-16T06:23:42.008Z,3.90
2023-03-16T06:24:23.878Z,3.70
2023-03-16T06:25:06.230Z,3.70
2023-03-16T06:25:49.110Z,3.90
2023-03-16T06:27:13.469Z,3.80
2023-03-16T06:27:56.156Z,3.80
2023-03-16T06:28:38.065Z,3.70
2023-03-16T06:29:22.235Z,3.80
2023-03-16T06:30:06.982Z,3.70
2023-03-16T06:30:48.853Z,3.70
2023-03-16T06:31:31.096Z,4.00
2023-03-16T06:32:13.862Z,3.70
2023-03-16T06:32:56.300Z,3.80
2023-03-16T06:33:38.818Z,4.10
2023-03-16T06:34:21.275Z,3.60
2023-03-16T06:35:03.625Z,3.80
2023-03-16T06:35:45.395Z,4.00
2023-03-16T06:36:27.486Z,3.90
2023-03-16T06:37:09.324Z,3.90
2023-03-16T06:37:51.606Z,3.80
2023-03-16T06:38:33.676Z,3.80
2023-03-16T06:39:15.471Z,3.80
2023-03-16T06:39:57.351Z,3.80
2023-03-16T06:40:39.131Z,3.90
2023-03-16T06:42:04.678Z,3.30
2023-03-16T06:42:47.436Z,4.00
2023-03-16T06:43:29.330Z,3.80
2023-03-16T06:44:11.644Z,3.90
2023-03-16T06:44:53.732Z,4.10
2023-03-16T06:45:35.991Z,4.20
2023-03-16T06:46:18.238Z,4.10
2023-03-16T06:47:00.319Z,3.70
2023-03-16T06:47:43.529Z,4.20
2023-03-16T06:48:25.483Z,3.90
2023-03-16T06:49:07.397Z,5.00
2023-03-16T06:49:51.201Z,4.20
2023-03-16T06:50:33.183Z,4.00
2023-03-16T06:51:17.329Z,4.10
2023-03-16T06:51:59.112Z,3.90
2023-03-16T06:52:41.647Z,4.20
2023-03-16T06:53:23.653Z,5.60
2023-03-16T06:54:05.418Z,4.10
2023-03-16T06:54:47.205Z,4.20
2023-03-16T06:55:29.499Z,4.30
2023-03-16T06:56:13.860Z,3.90
2023-03-16T06:56:55.609Z,4.10
2023-03-16T06:57:37.352Z,4.50
2023-03-16T06:58:19.163Z,4.40
2023-03-16T06:59:04.080Z,4.30
2023-03-16T06:59:45.875Z,4.10
2023-03-16T07:00:28.360Z,4.30
2023-03-16T07:01:10.356Z,4.20
2023-03-16T07:01:52.207Z,4.40
2023-03-16T07:02:35.796Z,4.20
2023-03-16T07:03:18.205Z,4.50
2023-03-16T07:04:02.101Z,4.40
2023-03-16T07:04:44.075Z,4.30
2023-03-16T07:05:26.371Z,4.40
2023-03-16T07:06:09.584Z,4.30
2023-03-16T07:06:51.738Z,4.40
2023-03-16T07:07:34.099Z,4.30
2023-03-16T07:08:16.181Z,4.30
2023-03-16T07:08:58.295Z,4.40
2023-03-16T07:09:42.501Z,4.50
2023-03-16T07:10:25.386Z,4.70
2023-03-16T07:11:07.205Z,4.50
2023-03-16T07:11:49.017Z,4.90
2023-03-16T07:12:31.458Z,4.70
2023-03-16T07:13:13.904Z,4.70
2023-03-16T07:13:55.667Z,4.60
2023-03-16T07:14:37.658Z,4.90
2023-03-16T07:15:19.776Z,4.70
2023-03-16T07:16:02.197Z,4.80
2023-03-16T07:16:44.050Z,4.70
2023-03-16T07:17:26.393Z,4.60
2023-03-16T07:18:08.363Z,5.00
2023-03-16T07:18:52.271Z,4.90
2023-03-16T07:19:34.028Z,4.70
2023-03-16T07:20:16.331Z,4.80
2023-03-16T07:20:58.355Z,4.40
2023-03-16T07:21:40.984Z,4.80
2023-03-16T07:22:22.778Z,5.00
2023-03-16T07:23:04.777Z,4.80
2023-03-16T07:23:49.409Z,4.70
2023-03-16T07:24:32.739Z,4.80
2023-03-16T07:25:14.593Z,5.00
2023-03-16T07:25:56.597Z,5.10
2023-03-16T07:26:38.768Z,4.90
2023-03-16T07:27:20.558Z,5.20
2023-03-16T07:28:02.483Z,4.80
2023-03-16T07:28:47.332Z,5.10
2023-03-16T07:29:29.186Z,5.10
2023-03-16T07:30:14.158Z,4.80
2023-03-16T07:31:03.349Z,4.70
2023-03-16T07:31:46.548Z,5.10
2023-03-16T07:32:28.450Z,5.10
2023-03-16T07:33:12.646Z,5.00
2023-03-16T07:33:54.486Z,5.40
2023-03-16T07:34:36.608Z,5.10
2023-03-16T07:35:18.450Z,5.40
2023-03-16T07:36:02.602Z,5.10
2023-03-16T07:36:44.420Z,5.20
2023-03-16T07:37:26.911Z,5.20
2023-03-16T07:38:11.276Z,7.30
2023-03-16T07:38:53.072Z,5.30
2023-03-16T07:39:36.011Z,5.40
2023-03-16T07:40:17.967Z,5.30
2023-03-16T07:41:02.649Z,5.30
2023-03-16T07:41:44.446Z,5.40
2023-03-16T07:42:26.531Z,5.60
2023-03-16T07:43:08.437Z,5.40
2023-03-16T07:43:52.570Z,5.50
2023-03-16T07:44:34.366Z,5.70
2023-03-16T07:45:18.106Z,5.50
2023-03-16T07:46:00.016Z,5.70
2023-03-16T07:46:42.052Z,5.60
2023-03-16T07:47:26.606Z,5.40
2023-03-16T07:48:08.562Z,5.70
2023-03-16T07:48:50.327Z,5.50
2023-03-16T07:49:34.471Z,5.60
2023-03-16T07:50:19.253Z,5.80
2023-03-16T07:51:01.069Z,6.00
2023-03-16T07:51:42.868Z,5.80
2023-03-16T07:52:24.894Z,5.80
2023-03-16T07:53:09.500Z,5.10
2023-03-16T07:53:51.651Z,5.80
2023-03-16T07:54:33.606Z,7.30
2023-03-16T07:55:16.155Z,5.70
2023-03-16T07:55:58.003Z,5.70
2023-03-16T07:56:48.862Z,5.90
2023-03-16T07:57:31.638Z,5.60
2023-03-16T07:58:13.620Z,5.80
2023-03-16T07:58:55.480Z,6.00
2023-03-16T07:59:38.487Z,5.50
2023-03-16T08:00:23.897Z,5.90
2023-03-16T08:01:05.923Z,5.80
2023-03-16T08:01:48.004Z,5.90
2023-03-16T08:02:29.802Z,5.70
2023-03-16T08:03:11.924Z,5.80
2023-03-16T08:03:54.002Z,6.00
2023-03-16T08:04:36.637Z,6.10
2023-03-16T08:05:18.396Z,5.90
2023-03-16T08:06:00.212Z,6.20
2023-03-16T08:06:44.733Z,5.80
2023-03-16T08:07:29.469Z,5.90
2023-03-16T08:08:11.233Z,5.90
2023-03-16T08:08:53.621Z,6.20
2023-03-16T08:09:35.918Z,6.20
2023-03-16T08:10:18.619Z,6.40
2023-03-16T08:11:00.848Z,5.80
2023-03-16T08:11:42.799Z,6.00
2023-03-16T08:12:24.631Z,6.10
2023-03-16T08:13:06.881Z,6.00
2023-03-16T08:13:56.470Z,6.00
2023-03-16T08:14:39.059Z,6.10
2023-03-16T08:15:21.792Z,6.30
2023-03-16T08:16:07.972Z,5.90
2023-03-16T08:16:49.791Z,6.20
2023-03-16T08:17:32.056Z,5.90
2023-03-16T08:18:14.645Z,6.00
2023-03-16T08:18:59.581Z,5.80
2023-03-16T08:19:43.094Z,5.90
2023-03-16T08:20:24.939Z,6.00
2023-03-16T08:21:06.773Z,6.20
2023-03-16T08:22:01.265Z,6.00
2023-03-16T08:22:46.642Z,6.30
2023-03-16T08:23:29.533Z,6.50
2023-03-16T08:24:11.366Z,6.10
2023-03-16T08:24:53.824Z,6.30
2023-03-16T08:25:35.669Z,6.30
2023-03-16T08:26:19.032Z,6.40
2023-03-16T08:27:01.051Z,6.10
2023-03-16T08:27:43.173Z,6.30
2023-03-16T08:28:26.157Z,6.20
2023-03-16T08:29:08.265Z,6.40
2023-03-16T08:29:53.649Z,6.10
2023-03-16T08:30:36.335Z,6.10
2023-03-16T08:31:19.202Z,7.00
2023-03-16T08:32:01.239Z,6.70
2023-03-16T08:32:43.153Z,6.20
2023-03-16T08:33:26.014Z,6.60
2023-03-16T08:34:07.897Z,6.50
2023-03-16T08:34:50.134Z,6.60
2023-03-16T08:35:32.339Z,6.70
2023-03-16T08:36:16.965Z,6.40
2023-03-16T08:36:59.843Z,6.80
2023-03-16T08:37:42.732Z,7.30
2023-03-16T08:38:25.294Z,6.70
2023-03-16T08:39:07.850Z,6.50
2023-03-16T08:39:54.154Z,6.30
2023-03-16T08:40:36.146Z,7.50
2023-03-16T08:41:18.252Z,7.00
2023-03-16T08:42:00.202Z,7.00
2023-03-16T08:42:43.094Z,6.80
2023-03-16T08:43:25.843Z,6.70
2023-03-16T08:44:07.923Z,6.80
2023-03-16T08:44:49.836Z,6.40
2023-03-16T08:45:31.754Z,6.80
2023-03-16T08:46:14.161Z,6.70
2023-03-16T08:46:56.327Z,6.80
2023-03-16T08:47:40.372Z,6.80
2023-03-16T08:48:22.258Z,6.50
2023-03-16T08:49:04.132Z,6.90
2023-03-16T08:49:45.963Z,6.50
2023-03-16T08:50:28.660Z,6.50
2023-03-16T08:51:13.977Z,6.70
2023-03-16T08:51:55.907Z,6.50
2023-03-16T08:52:37.886Z,6.60
2023-03-16T08:53:21.043Z,6.70
2023-03-16T08:54:03.280Z,6.70
2023-03-16T08:54:59.731Z,6.70
2023-03-16T08:55:44.076Z,6.70
2023-03-16T08:56:25.964Z,6.80
2023-03-16T08:57:09.300Z,6.70
2023-03-16T08:57:51.409Z,7.10
2023-03-16T08:58:36.845Z,6.80
2023-03-16T08:59:28.935Z,7.00
2023-03-16T09:00:15.917Z,7.10
2023-03-16T09:00:58.668Z,7.30
2023-03-16T09:01:40.675Z,7.00
2023-03-16T09:02:22.702Z,7.20
2023-03-16T09:03:04.777Z,7.10
2023-03-16T09:03:46.882Z,7.30
2023-03-16T09:04:30.001Z,7.30
2023-03-16T09:05:14.745Z,6.90
2023-03-16T09:06:05.530Z,7.00
2023-03-16T09:07:02.322Z,9.50
2023-03-16T09:07:51.718Z,7.20
2023-03-16T09:08:33.997Z,7.30
2023-03-16T09:09:16.417Z,6.70
2023-03-16T09:09:58.704Z,7.60
2023-03-16T09:10:40.611Z,7.30
2023-03-16T09:11:23.446Z,7.30
2023-03-16T09:12:06.165Z,7.50
2023-03-16T09:12:48.073Z,7.30
2023-03-16T09:13:30.924Z,7.30
2023-03-16T09:14:13.518Z,7.30
2023-03-16T09:14:56.147Z,7.50
2023-03-16T09:15:38.916Z,7.20
2023-03-16T09:16:25.600Z,7.10
2023-03-16T09:17:08.030Z,7.40
2023-03-16T09:17:50.392Z,7.60
2023-03-16T09:18:33.046Z,7.20
2023-03-16T09:19:15.075Z,7.60
2023-03-16T09:20:08.082Z,7.20
2023-03-16T09:21:01.455Z,7.30
2023-03-16T09:21:46.501Z,7.40
2023-03-16T09:22:29.410Z,7.60
2023-03-16T09:23:14.332Z,7.10
2023-03-16T09:23:56.962Z,7.60
2023-03-16T09:24:38.851Z,7.40
2023-03-16T09:25:21.014Z,7.60
2023-03-16T09:26:05.624Z,7.40
2023-03-16T09:26:47.497Z,7.50
2023-03-16T09:27:30.373Z,7.50
2023-03-16T09:28:12.517Z,7.40
2023-03-16T09:28:54.705Z,7.80
2023-03-16T09:29:38.995Z,7.80
2023-03-16T09:30:21.329Z,7.70
2023-03-16T09:31:03.558Z,7.50
2023-03-16T09:31:47.322Z,8.10
2023-03-16T09:32:30.619Z,7.80
2023-03-16T09:33:12.522Z,8.10
2023-03-16T09:33:54.499Z,8.10
2023-03-16T09:34:36.750Z,8.00
2023-03-16T09:35:19.568Z,7.70
2023-03-16T09:36:02.151Z,8.10
2023-03-16T09:36:44.040Z,7.90
2023-03-16T09:37:27.002Z,7.90
2023-03-16T09:38:09.651Z,7.90
2023-03-16T09:38:51.800Z,8.40
2023-03-16T09:39:33.619Z,8.50
2023-03-16T09:40:30.603Z,8.40
2023-03-16T09:41:49.642Z,8.20
2023-03-16T09:42:40.049Z,8.50
2023-03-16T09:43:40.229Z,8.00
2023-03-16T09:44:48.831Z,8.00
2023-03-16T09:45:45.616Z,8.10
2023-03-16T09:46:30.162Z,8.40
2023-03-16T09:47:13.509Z,8.30
2023-03-16T09:48:04.092Z,7.90
2023-03-16T09:48:47.789Z,8.30